sensor_id;sensor_type;location;lat;lon;timestamp;pressure;altitude;pressure_sealevel;temperature;humidity
40920;BME280;26652;50.280;19.026;2024-02-16T00:01:21;150425.75;;;10.61;88.33
40920;BME280;26652;50.280;19.026;2024-02-16T00:03:22;150390.00;;;10.46;88.62
40920;BME280;26652;50.280;19.026;2024-02-16T00:05:22;150394.94;;;10.48;89.42
40920;BME280;26652;50.280;19.026;2024-02-16T00:07:23;150403.56;;;10.52;89.06
40920;BME280;26652;50.280;19.026;2024-02-16T00:09:24;150429.47;;;10.62;88.37
40920;BME280;26652;50.280;19.026;2024-02-16T00:11:24;150390.00;;;10.46;89.13
40920;BME280;26652;50.280;19.026;2024-02-16T00:13:25;150425.75;;;10.61;88.72
40920;BME280;26652;50.280;19.026;2024-02-16T00:15:26;150378.91;;;10.41;88.68
40920;BME280;26652;50.280;19.026;2024-02-16T00:17:27;150381.38;;;10.42;88.94
40920;BME280;26652;50.280;19.026;2024-02-16T00:19:28;150407.28;;;10.53;88.35
40920;BME280;26652;50.280;19.026;2024-02-16T00:21:29;150402.34;;;10.51;87.82
40920;BME280;26652;50.280;19.026;2024-02-16T00:23:29;150401.09;;;10.51;87.68
40920;BME280;26652;50.280;19.026;2024-02-16T00:25:30;150410.97;;;10.55;88.21
40920;BME280;26652;50.280;19.026;2024-02-16T00:27:31;150417.13;;;10.57;87.76
40920;BME280;26652;50.280;19.026;2024-02-16T00:29:31;150444.25;;;10.68;87.42
40920;BME280;26652;50.280;19.026;2024-02-16T00:31:32;150441.78;;;10.67;87.53
40920;BME280;26652;50.280;19.026;2024-02-16T00:33:33;150434.41;;;10.64;87.55
40920;BME280;26652;50.280;19.026;2024-02-16T00:35:34;150418.38;;;10.58;87.32
40920;BME280;26652;50.280;19.026;2024-02-16T00:37:34;150388.78;;;10.45;87.95
40920;BME280;26652;50.280;19.026;2024-02-16T00:39:36;150383.84;;;10.43;88.64
40920;BME280;26652;50.280;19.026;2024-02-16T00:41:36;150362.94;;;10.35;88.77
40920;BME280;26652;50.280;19.026;2024-02-16T00:43:37;150358.00;;;10.33;89.33
40920;BME280;26652;50.280;19.026;2024-02-16T00:45:39;150375.25;;;10.40;88.68
40920;BME280;26652;50.280;19.026;2024-02-16T00:47:41;150341.97;;;10.26;89.36
40920;BME280;26652;50.280;19.026;2024-02-16T00:49:43;150346.91;;;10.28;89.42
40920;BME280;26652;50.280;19.026;2024-02-16T00:51:43;150328.44;;;10.21;89.67
40920;BME280;26652;50.280;19.026;2024-02-16T00:53:44;150322.22;;;10.18;90.11
40920;BME280;26652;50.280;19.026;2024-02-16T00:55:45;150295.09;;;10.07;90.64
40920;BME280;26652;50.280;19.026;2024-02-16T00:57:45;150298.81;;;10.08;91.02
40920;BME280;26652;50.280;19.026;2024-02-16T00:59:46;150290.19;;;10.05;90.83
40920;BME280;26652;50.280;19.026;2024-02-16T01:01:47;150284.00;;;10.02;91.09
40920;BME280;26652;50.280;19.026;2024-02-16T01:03:49;150275.38;;;9.99;91.20
40920;BME280;26652;50.280;19.026;2024-02-16T01:05:49;150249.50;;;9.88;91.96
40920;BME280;26652;50.280;19.026;2024-02-16T01:07:50;150243.34;;;9.86;92.01
40920;BME280;26652;50.280;19.026;2024-02-16T01:09:51;150223.63;;;9.77;92.96
40920;BME280;26652;50.280;19.026;2024-02-16T01:11:51;150260.59;;;9.93;92.25
40920;BME280;26652;50.280;19.026;2024-02-16T01:13:52;150219.94;;;9.76;92.02
40920;BME280;26652;50.280;19.026;2024-02-16T01:15:53;150210.09;;;9.72;92.23
40920;BME280;26652;50.280;19.026;2024-02-16T01:17:54;150219.94;;;9.76;91.67
40920;BME280;26652;50.280;19.026;2024-02-16T01:19:55;150178.06;;;9.59;91.95
40920;BME280;26652;50.280;19.026;2024-02-16T01:21:55;150196.53;;;9.66;92.22
40920;BME280;26652;50.280;19.026;2024-02-16T01:23:58;150199.00;;;9.67;92.09
40920;BME280;26652;50.280;19.026;2024-02-16T01:26:00;150190.38;;;9.64;91.95
40920;BME280;26652;50.280;19.026;2024-02-16T01:28:01;150196.53;;;9.66;92.03
40920;BME280;26652;50.280;19.026;2024-02-16T01:30:02;150160.81;;;9.51;92.16
40920;BME280;26652;50.280;19.026;2024-02-16T01:32:03;150130.00;;;9.39;92.47
40920;BME280;26652;50.280;19.026;2024-02-16T01:34:04;150142.31;;;9.44;93.23
40920;BME280;26652;50.280;19.026;2024-02-16T01:36:05;150159.56;;;9.51;92.63
40920;BME280;26652;50.280;19.026;2024-02-16T01:38:06;150194.06;;;9.65;92.05
40920;BME280;26652;50.280;19.026;2024-02-16T01:40:09;150210.09;;;9.72;91.73
40920;BME280;26652;50.280;19.026;2024-02-16T01:42:17;150200.22;;;9.68;91.02
40920;BME280;26652;50.280;19.026;2024-02-16T01:44:18;150192.84;;;9.65;90.53
40920;BME280;26652;50.280;19.026;2024-02-16T01:46:19;150202.69;;;9.69;90.71
40920;BME280;26652;50.280;19.026;2024-02-16T01:48:20;150203.94;;;9.69;90.62
40920;BME280;26652;50.280;19.026;2024-02-16T01:50:21;150206.41;;;9.70;90.09
40920;BME280;26652;50.280;19.026;2024-02-16T01:52:22;150201.47;;;9.68;89.99
40920;BME280;26652;50.280;19.026;2024-02-16T01:54:23;150164.50;;;9.53;89.85
40920;BME280;26652;50.280;19.026;2024-02-16T01:56:24;150126.31;;;9.37;90.86
40920;BME280;26652;50.280;19.026;2024-02-16T01:58:27;150098.03;;;9.26;91.45
40920;BME280;26652;50.280;19.026;2024-02-16T02:00:27;150107.91;;;9.30;91.48
40920;BME280;26652;50.280;19.026;2024-02-16T02:02:28;150062.31;;;9.11;92.47
40920;BME280;26652;50.280;19.026;2024-02-16T02:04:29;150036.47;;;9.00;92.40
40920;BME280;26652;50.280;19.026;2024-02-16T02:06:30;150042.63;;;9.03;92.92
40920;BME280;26652;50.280;19.026;2024-02-16T02:08:31;149993.38;;;8.82;93.22
40920;BME280;26652;50.280;19.026;2024-02-16T02:10:31;149992.13;;;8.82;93.50
40920;BME280;26652;50.280;19.026;2024-02-16T02:12:32;149978.59;;;8.76;93.87
40920;BME280;26652;50.280;19.026;2024-02-16T02:14:34;149997.06;;;8.84;94.47
40920;BME280;26652;50.280;19.026;2024-02-16T02:16:34;149969.97;;;8.73;94.57
40920;BME280;26652;50.280;19.026;2024-02-16T02:18:35;149953.97;;;8.66;94.92
40920;BME280;26652;50.280;19.026;2024-02-16T02:20:36;149992.13;;;8.82;95.04
40920;BME280;26652;50.280;19.026;2024-02-16T02:22:37;149950.28;;;8.65;94.96
40920;BME280;26652;50.280;19.026;2024-02-16T02:24:38;149952.75;;;8.66;95.20
40920;BME280;26652;50.280;19.026;2024-02-16T02:26:39;149965.06;;;8.71;94.73
40920;BME280;26652;50.280;19.026;2024-02-16T02:28:40;149944.13;;;8.62;95.27
40920;BME280;26652;50.280;19.026;2024-02-16T02:30:40;149920.72;;;8.52;95.23
40920;BME280;26652;50.280;19.026;2024-02-16T02:32:41;149907.19;;;8.47;95.35
40920;BME280;26652;50.280;19.026;2024-02-16T02:34:42;149901.03;;;8.44;95.78
40920;BME280;26652;50.280;19.026;2024-02-16T02:36:44;149945.34;;;8.63;95.32
40920;BME280;26652;50.280;19.026;2024-02-16T02:38:44;149947.81;;;8.64;94.86
40920;BME280;26652;50.280;19.026;2024-02-16T02:40:45;149924.44;;;8.54;96.04
40920;BME280;26652;50.280;19.026;2024-02-16T02:42:45;149889.97;;;8.40;95.97
40920;BME280;26652;50.280;19.026;2024-02-16T02:44:46;149898.56;;;8.43;96.06
40920;BME280;26652;50.280;19.026;2024-02-16T02:46:50;149901.03;;;8.44;96.59
40920;BME280;26652;50.280;19.026;2024-02-16T02:48:52;149898.56;;;8.43;96.58
40920;BME280;26652;50.280;19.026;2024-02-16T02:50:52;149869.03;;;8.31;96.54
40920;BME280;26652;50.280;19.026;2024-02-16T02:52:53;149844.41;;;8.21;97.00
40920;BME280;26652;50.280;19.026;2024-02-16T02:54:54;149844.41;;;8.21;97.05
40920;BME280;26652;50.280;19.026;2024-02-16T02:56:55;149817.34;;;8.10;97.64
40920;BME280;26652;50.280;19.026;2024-02-16T02:58:55;149837.03;;;8.18;97.96
40920;BME280;26652;50.280;19.026;2024-02-16T03:00:56;149835.81;;;8.17;97.68
40920;BME280;26652;50.280;19.026;2024-02-16T03:02:57;149859.19;;;8.27;97.21
40920;BME280;26652;50.280;19.026;2024-02-16T03:04:57;149864.13;;;8.29;96.92
40920;BME280;26652;50.280;19.026;2024-02-16T03:06:58;149833.34;;;8.16;97.31
40920;BME280;26652;50.280;19.026;2024-02-16T03:08:59;149817.34;;;8.10;98.03
40920;BME280;26652;50.280;19.026;2024-02-16T03:10:59;149774.28;;;7.92;98.36
40920;BME280;26652;50.280;19.026;2024-02-16T03:13:01;149791.50;;;7.99;98.45
40920;BME280;26652;50.280;19.026;2024-02-16T03:15:03;149790.28;;;7.99;97.92
40920;BME280;26652;50.280;19.026;2024-02-16T03:17:04;149777.97;;;7.94;98.70
40920;BME280;26652;50.280;19.026;2024-02-16T03:19:07;149741.06;;;7.78;99.68
40920;BME280;26652;50.280;19.026;2024-02-16T03:21:13;149686.94;;;7.56;100.00
40920;BME280;26652;50.280;19.026;2024-02-16T03:23:16;149726.31;;;7.72;100.00
40920;BME280;26652;50.280;19.026;2024-02-16T03:25:16;149712.78;;;7.67;100.00
40920;BME280;26652;50.280;19.026;2024-02-16T03:27:17;149680.78;;;7.53;100.00
40920;BME280;26652;50.280;19.026;2024-02-16T03:29:18;149683.25;;;7.54;100.00
40920;BME280;26652;50.280;19.026;2024-02-16T03:31:22;149698.00;;;7.61;100.00
40920;BME280;26652;50.280;19.026;2024-02-16T03:33:23;149700.47;;;7.62;100.00
40920;BME280;26652;50.280;19.026;2024-02-16T03:35:24;149684.47;;;7.55;100.00
40920;BME280;26652;50.280;19.026;2024-02-16T03:37:25;149678.31;;;7.52;100.00
40920;BME280;26652;50.280;19.026;2024-02-16T03:39:26;149674.63;;;7.51;100.00
40920;BME280;26652;50.280;19.026;2024-02-16T03:41:27;149680.78;;;7.53;100.00
40920;BME280;26652;50.280;19.026;2024-02-16T03:43:27;149682.00;;;7.54;100.00
40920;BME280;26652;50.280;19.026;2024-02-16T03:45:28;149672.19;;;7.50;100.00
40920;BME280;26652;50.280;19.026;2024-02-16T03:47:28;149686.94;;;7.56;100.00
40920;BME280;26652;50.280;19.026;2024-02-16T03:49:29;149711.53;;;7.66;100.00
40920;BME280;26652;50.280;19.026;2024-02-16T03:51:30;149696.78;;;7.60;100.00
40920;BME280;26652;50.280;19.026;2024-02-16T03:53:31;149691.84;;;7.58;100.00
40920;BME280;26652;50.280;19.026;2024-02-16T03:55:31;149658.66;;;7.44;100.00
40920;BME280;26652;50.280;19.026;2024-02-16T03:57:39;149669.72;;;7.49;100.00
40920;BME280;26652;50.280;19.026;2024-02-16T03:59:40;149680.78;;;7.53;100.00
40920;BME280;26652;50.280;19.026;2024-02-16T04:01:41;149689.41;;;7.57;99.48
40920;BME280;26652;50.280;19.026;2024-02-16T04:03:42;149679.56;;;7.53;98.54
40920;BME280;26652;50.280;19.026;2024-02-16T04:05:43;149701.69;;;7.62;97.51
40920;BME280;26652;50.280;19.026;2024-02-16T04:07:43;149717.69;;;7.69;96.54
40920;BME280;26652;50.280;19.026;2024-02-16T04:09:44;149723.84;;;7.71;97.08
40920;BME280;26652;50.280;19.026;2024-02-16T04:11:46;149722.59;;;7.71;97.40
40920;BME280;26652;50.280;19.026;2024-02-16T04:13:47;149690.63;;;7.58;97.84
40920;BME280;26652;50.280;19.026;2024-02-16T04:15:47;149695.53;;;7.60;98.04
40920;BME280;26652;50.280;19.026;2024-02-16T04:17:48;149686.94;;;7.56;97.63
40920;BME280;26652;50.280;19.026;2024-02-16T04:19:49;149647.56;;;7.40;98.21
40920;BME280;26652;50.280;19.026;2024-02-16T04:21:50;149622.97;;;7.30;99.72
40920;BME280;26652;50.280;19.026;2024-02-16T04:23:51;149626.66;;;7.31;100.00
40920;BME280;26652;50.280;19.026;2024-02-16T04:25:52;149625.44;;;7.31;100.00
40920;BME280;26652;50.280;19.026;2024-02-16T04:27:53;149600.88;;;7.20;100.00
40920;BME280;26652;50.280;19.026;2024-02-16T04:29:53;149579.97;;;7.12;100.00
40920;BME280;26652;50.280;19.026;2024-02-16T04:31:54;149545.56;;;6.98;100.00
40920;BME280;26652;50.280;19.026;2024-02-16T04:33:55;149561.53;;;7.04;100.00
40920;BME280;26652;50.280;19.026;2024-02-16T04:35:55;149571.38;;;7.08;100.00
40920;BME280;26652;50.280;19.026;2024-02-16T04:37:56;149517.28;;;6.86;100.00
40920;BME280;26652;50.280;19.026;2024-02-16T04:39:57;149518.50;;;6.86;100.00
40920;BME280;26652;50.280;19.026;2024-02-16T04:41:57;149530.81;;;6.92;100.00
40920;BME280;26652;50.280;19.026;2024-02-16T04:43:58;149524.66;;;6.89;100.00
40920;BME280;26652;50.280;19.026;2024-02-16T04:45:59;149479.16;;;6.70;100.00
40920;BME280;26652;50.280;19.026;2024-02-16T04:48:03;149512.34;;;6.84;100.00
40920;BME280;26652;50.280;19.026;2024-02-16T04:50:06;149512.34;;;6.84;100.00
40920;BME280;26652;50.280;19.026;2024-02-16T04:52:09;149519.75;;;6.87;100.00
40920;BME280;26652;50.280;19.026;2024-02-16T04:54:10;149539.41;;;6.95;100.00
40920;BME280;26652;50.280;19.026;2024-02-16T04:56:11;149577.53;;;7.11;100.00
40920;BME280;26652;50.280;19.026;2024-02-16T04:58:12;149561.53;;;7.04;100.00
40920;BME280;26652;50.280;19.026;2024-02-16T05:00:13;149586.13;;;7.14;100.00
40920;BME280;26652;50.280;19.026;2024-02-16T05:02:14;149577.53;;;7.11;100.00
40920;BME280;26652;50.280;19.026;2024-02-16T05:04:15;149562.78;;;7.05;100.00
40920;BME280;26652;50.280;19.026;2024-02-16T05:06:18;149583.66;;;7.13;100.00
40920;BME280;26652;50.280;19.026;2024-02-16T05:08:22;149555.41;;;7.02;100.00
40920;BME280;26652;50.280;19.026;2024-02-16T05:10:22;149581.22;;;7.12;100.00
40920;BME280;26652;50.280;19.026;2024-02-16T05:12:24;149556.63;;;7.02;100.00
40920;BME280;26652;50.280;19.026;2024-02-16T05:14:25;149577.53;;;7.11;100.00
40920;BME280;26652;50.280;19.026;2024-02-16T05:16:26;149578.75;;;7.11;100.00
40920;BME280;26652;50.280;19.026;2024-02-16T05:18:26;149541.88;;;6.96;100.00
40920;BME280;26652;50.280;19.026;2024-02-16T05:20:28;149556.63;;;7.02;100.00
40920;BME280;26652;50.280;19.026;2024-02-16T05:22:28;149561.53;;;7.04;100.00
40920;BME280;26652;50.280;19.026;2024-02-16T05:24:29;149567.69;;;7.07;100.00
40920;BME280;26652;50.280;19.026;2024-02-16T05:26:30;149566.47;;;7.06;100.00
40920;BME280;26652;50.280;19.026;2024-02-16T05:28:31;149572.59;;;7.09;100.00
40920;BME280;26652;50.280;19.026;2024-02-16T05:30:31;149567.69;;;7.07;100.00
40920;BME280;26652;50.280;19.026;2024-02-16T05:32:32;149562.78;;;7.05;100.00
40920;BME280;26652;50.280;19.026;2024-02-16T05:34:33;149564.00;;;7.05;100.00
40920;BME280;26652;50.280;19.026;2024-02-16T05:36:40;149529.56;;;6.91;100.00
40920;BME280;26652;50.280;19.026;2024-02-16T05:38:42;149566.47;;;7.06;100.00
40920;BME280;26652;50.280;19.026;2024-02-16T05:40:43;149544.31;;;6.97;100.00
40920;BME280;26652;50.280;19.026;2024-02-16T05:42:54;149570.16;;;7.08;100.00
40920;BME280;26652;50.280;19.026;2024-02-16T05:44:58;149561.53;;;7.04;100.00
40920;BME280;26652;50.280;19.026;2024-02-16T05:46:59;149564.00;;;7.05;99.82
40920;BME280;26652;50.280;19.026;2024-02-16T05:48:59;149561.53;;;7.04;100.00
40920;BME280;26652;50.280;19.026;2024-02-16T05:51:03;149516.06;;;6.85;100.00
40920;BME280;26652;50.280;19.026;2024-02-16T05:53:05;149492.69;;;6.76;100.00
40920;BME280;26652;50.280;19.026;2024-02-16T05:55:08;149486.53;;;6.73;100.00
40920;BME280;26652;50.280;19.026;2024-02-16T05:57:08;149495.16;;;6.77;100.00
40920;BME280;26652;50.280;19.026;2024-02-16T05:59:09;149511.13;;;6.83;100.00
40920;BME280;26652;50.280;19.026;2024-02-16T06:01:10;149525.88;;;6.89;100.00
40920;BME280;26652;50.280;19.026;2024-02-16T06:03:13;149544.31;;;6.97;100.00
40920;BME280;26652;50.280;19.026;2024-02-16T06:05:14;149584.91;;;7.14;99.95
40920;BME280;26652;50.280;19.026;2024-02-16T06:07:15;149551.72;;;7.00;100.00
40920;BME280;26652;50.280;19.026;2024-02-16T06:09:15;149587.38;;;7.15;98.80
40920;BME280;26652;50.280;19.026;2024-02-16T06:11:16;149560.31;;;7.04;98.85
40920;BME280;26652;50.280;19.026;2024-02-16T06:13:18;149561.53;;;7.04;98.99
40920;BME280;26652;50.280;19.026;2024-02-16T06:15:20;149581.22;;;7.12;98.81
40920;BME280;26652;50.280;19.026;2024-02-16T06:17:20;149591.06;;;7.16;98.42
40920;BME280;26652;50.280;19.026;2024-02-16T06:19:21;149579.97;;;7.12;98.42
40920;BME280;26652;50.280;19.026;2024-02-16T06:21:21;149579.97;;;7.12;98.60
40920;BME280;26652;50.280;19.026;2024-02-16T06:23:22;149579.97;;;7.12;97.76
40920;BME280;26652;50.280;19.026;2024-02-16T06:25:24;149579.97;;;7.12;98.25
40920;BME280;26652;50.280;19.026;2024-02-16T06:27:24;149576.28;;;7.10;97.86
40920;BME280;26652;50.280;19.026;2024-02-16T06:29:25;149573.84;;;7.09;97.98
40920;BME280;26652;50.280;19.026;2024-02-16T06:31:26;149611.97;;;7.25;97.40
40920;BME280;26652;50.280;19.026;2024-02-16T06:33:26;149608.28;;;7.24;96.73
40920;BME280;26652;50.280;19.026;2024-02-16T06:35:29;149613.19;;;7.26;96.03
40920;BME280;26652;50.280;19.026;2024-02-16T06:37:29;149646.34;;;7.39;95.46
40920;BME280;26652;50.280;19.026;2024-02-16T06:39:31;149674.63;;;7.51;94.87
40920;BME280;26652;50.280;19.026;2024-02-16T06:41:32;149680.78;;;7.53;94.04
40920;BME280;26652;50.280;19.026;2024-02-16T06:43:33;149651.25;;;7.41;93.99
40920;BME280;26652;50.280;19.026;2024-02-16T06:45:33;149682.00;;;7.54;93.94
40920;BME280;26652;50.280;19.026;2024-02-16T06:47:34;149686.94;;;7.56;93.72
40920;BME280;26652;50.280;19.026;2024-02-16T06:49:35;149701.69;;;7.62;93.33
40920;BME280;26652;50.280;19.026;2024-02-16T06:51:36;149668.47;;;7.48;93.26
40920;BME280;26652;50.280;19.026;2024-02-16T06:53:37;149690.63;;;7.58;93.27
40920;BME280;26652;50.280;19.026;2024-02-16T06:55:38;149730.00;;;7.74;92.63
40920;BME280;26652;50.280;19.026;2024-02-16T06:57:38;149710.31;;;7.66;92.83
40920;BME280;26652;50.280;19.026;2024-02-16T06:59:39;149706.63;;;7.64;92.33
40920;BME280;26652;50.280;19.026;2024-02-16T07:01:39;149754.59;;;7.84;92.44
40920;BME280;26652;50.280;19.026;2024-02-16T07:03:42;149758.28;;;7.85;91.86
40920;BME280;26652;50.280;19.026;2024-02-16T07:05:43;149807.50;;;8.06;91.13
40920;BME280;26652;50.280;19.026;2024-02-16T07:07:44;149854.25;;;8.25;90.09
40920;BME280;26652;50.280;19.026;2024-02-16T07:09:45;149904.72;;;8.46;88.33
40920;BME280;26652;50.280;19.026;2024-02-16T07:11:45;149907.19;;;8.47;87.74
40920;BME280;26652;50.280;19.026;2024-02-16T07:13:46;149893.66;;;8.41;88.12
40920;BME280;26652;50.280;19.026;2024-02-16T07:15:47;149887.50;;;8.39;87.64
40920;BME280;26652;50.280;19.026;2024-02-16T07:17:48;149899.81;;;8.44;87.80
40920;BME280;26652;50.280;19.026;2024-02-16T07:19:48;149891.19;;;8.40;88.23
40920;BME280;26652;50.280;19.026;2024-02-16T07:21:49;149929.34;;;8.56;88.14
40920;BME280;26652;50.280;19.026;2024-02-16T07:23:50;149985.97;;;8.79;86.47
40920;BME280;26652;50.280;19.026;2024-02-16T07:25:51;150042.63;;;9.03;85.06
40920;BME280;26652;50.280;19.026;2024-02-16T07:27:55;150024.16;;;8.95;84.62
40920;BME280;26652;50.280;19.026;2024-02-16T07:29:56;150047.53;;;9.05;83.92
40920;BME280;26652;50.280;19.026;2024-02-16T07:31:57;150030.31;;;8.98;84.29
40920;BME280;26652;50.280;19.026;2024-02-16T07:33:57;150077.09;;;9.17;84.23
40920;BME280;26652;50.280;19.026;2024-02-16T07:35:58;150035.22;;;9.00;84.04
40920;BME280;26652;50.280;19.026;2024-02-16T07:37:58;150064.78;;;9.12;83.69
40920;BME280;26652;50.280;19.026;2024-02-16T07:39:59;150083.25;;;9.20;83.99
40920;BME280;26652;50.280;19.026;2024-02-16T07:42:00;150106.66;;;9.29;83.05
40920;BME280;26652;50.280;19.026;2024-02-16T07:44:00;150102.97;;;9.28;82.78
40920;BME280;26652;50.280;19.026;2024-02-16T07:46:01;150086.94;;;9.21;83.53
40920;BME280;26652;50.280;19.026;2024-02-16T07:48:05;150100.50;;;9.27;83.24
40920;BME280;26652;50.280;19.026;2024-02-16T07:50:07;150120.22;;;9.35;82.98
40920;BME280;26652;50.280;19.026;2024-02-16T07:52:08;150153.41;;;9.48;82.51
40920;BME280;26652;50.280;19.026;2024-02-16T07:54:09;150176.81;;;9.58;81.17
40920;BME280;26652;50.280;19.026;2024-02-16T07:56:10;150221.16;;;9.76;80.87
40920;BME280;26652;50.280;19.026;2024-02-16T07:58:10;150215.00;;;9.74;80.89
40920;BME280;26652;50.280;19.026;2024-02-16T08:00:12;150233.50;;;9.81;81.32
40920;BME280;26652;50.280;19.026;2024-02-16T08:02:13;150226.09;;;9.78;80.86
40920;BME280;26652;50.280;19.026;2024-02-16T08:04:16;150291.41;;;10.05;79.73
40920;BME280;26652;50.280;19.026;2024-02-16T08:06:16;150321.00;;;10.18;79.15
40920;BME280;26652;50.280;19.026;2024-02-16T08:08:22;150338.28;;;10.25;79.28
40920;BME280;26652;50.280;19.026;2024-02-16T08:10:23;150327.19;;;10.20;78.78
40920;BME280;26652;50.280;19.026;2024-02-16T08:12:26;150282.78;;;10.02;78.90
40920;BME280;26652;50.280;19.026;2024-02-16T08:14:28;150249.50;;;9.88;79.33
40920;BME280;26652;50.280;19.026;2024-02-16T08:16:29;150261.84;;;9.93;79.46
40920;BME280;26652;50.280;19.026;2024-02-16T08:18:29;150276.63;;;9.99;79.49
40920;BME280;26652;50.280;19.026;2024-02-16T08:20:30;150256.91;;;9.91;79.79
40920;BME280;26652;50.280;19.026;2024-02-16T08:22:31;150282.78;;;10.02;79.77
40920;BME280;26652;50.280;19.026;2024-02-16T08:24:35;150281.56;;;10.01;79.70
40920;BME280;26652;50.280;19.026;2024-02-16T08:26:36;150308.66;;;10.12;80.01
40920;BME280;26652;50.280;19.026;2024-02-16T08:28:37;150301.28;;;10.09;79.85
40920;BME280;26652;50.280;19.026;2024-02-16T08:30:39;150402.34;;;10.51;79.82
40920;BME280;26652;50.280;19.026;2024-02-16T08:32:42;150462.75;;;10.76;78.21
40920;BME280;26652;50.280;19.026;2024-02-16T08:34:43;150470.16;;;10.79;77.45
40920;BME280;26652;50.280;19.026;2024-02-16T08:36:45;150496.03;;;10.90;77.03
40920;BME280;26652;50.280;19.026;2024-02-16T08:38:46;150544.13;;;11.09;76.50
40920;BME280;26652;50.280;19.026;2024-02-16T08:40:46;150588.53;;;11.28;75.65
40920;BME280;26652;50.280;19.026;2024-02-16T08:42:48;150587.31;;;11.27;75.25
40920;BME280;26652;50.280;19.026;2024-02-16T08:44:49;150546.59;;;11.10;75.03
40920;BME280;26652;50.280;19.026;2024-02-16T08:46:49;150602.09;;;11.33;75.00
40920;BME280;26652;50.280;19.026;2024-02-16T08:48:51;150666.19;;;11.60;74.96
40920;BME280;26652;50.280;19.026;2024-02-16T08:50:51;150745.22;;;11.92;73.39
40920;BME280;26652;50.280;19.026;2024-02-16T08:52:52;150793.34;;;12.12;72.41
40920;BME280;26652;50.280;19.026;2024-02-16T08:54:53;150858.75;;;12.39;71.71
40920;BME280;26652;50.280;19.026;2024-02-16T08:56:54;150973.53;;;12.86;71.55
40920;BME280;26652;50.280;19.026;2024-02-16T08:58:55;151063.72;;;13.23;69.17
40920;BME280;26652;50.280;19.026;2024-02-16T09:00:56;151147.69;;;13.58;66.89
40920;BME280;26652;50.280;19.026;2024-02-16T09:02:56;151200.81;;;13.80;66.00
40920;BME280;26652;50.280;19.026;2024-02-16T09:04:58;151225.50;;;13.90;66.22
40920;BME280;26652;50.280;19.026;2024-02-16T09:06:59;151220.56;;;13.88;66.10
40920;BME280;26652;50.280;19.026;2024-02-16T09:09:00;151279.88;;;14.12;65.33
40920;BME280;26652;50.280;19.026;2024-02-16T09:11:04;151310.78;;;14.25;64.37
40920;BME280;26652;50.280;19.026;2024-02-16T09:13:05;151418.31;;;14.69;63.85
40920;BME280;26652;50.280;19.026;2024-02-16T09:15:06;151399.78;;;14.61;62.84
40920;BME280;26652;50.280;19.026;2024-02-16T09:17:07;151324.38;;;14.30;63.05
40920;BME280;26652;50.280;19.026;2024-02-16T09:19:08;151268.75;;;14.07;63.51
40920;BME280;26652;50.280;19.026;2024-02-16T09:21:08;151232.94;;;13.93;64.01
40920;BME280;26652;50.280;19.026;2024-02-16T09:23:09;151153.84;;;13.60;64.92
40920;BME280;26652;50.280;19.026;2024-02-16T09:25:10;151163.72;;;13.64;64.73
40920;BME280;26652;50.280;19.026;2024-02-16T09:27:11;151162.50;;;13.64;64.81
40920;BME280;26652;50.280;19.026;2024-02-16T09:29:13;151126.72;;;13.49;64.67
40920;BME280;26652;50.280;19.026;2024-02-16T09:31:14;151099.53;;;13.38;65.71
40920;BME280;26652;50.280;19.026;2024-02-16T09:33:15;151111.91;;;13.43;65.70
40920;BME280;26652;50.280;19.026;2024-02-16T09:35:16;151148.91;;;13.58;65.66
40920;BME280;26652;50.280;19.026;2024-02-16T09:37:17;151135.31;;;13.53;65.16
40920;BME280;26652;50.280;19.026;2024-02-16T09:39:17;151146.44;;;13.57;65.47
40920;BME280;26652;50.280;19.026;2024-02-16T09:41:18;151156.31;;;13.61;65.58
40920;BME280;26652;50.280;19.026;2024-02-16T09:43:26;151179.78;;;13.71;64.36
40920;BME280;26652;50.280;19.026;2024-02-16T09:45:28;151224.28;;;13.89;63.78
40920;BME280;26652;50.280;19.026;2024-02-16T09:47:30;151231.69;;;13.92;63.46
40920;BME280;26652;50.280;19.026;2024-02-16T09:49:33;151340.44;;;14.37;61.90
40920;BME280;26652;50.280;19.026;2024-02-16T09:51:37;151278.66;;;14.12;62.13
40920;BME280;26652;50.280;19.026;2024-02-16T09:53:38;151237.88;;;13.95;62.54
40920;BME280;26652;50.280;19.026;2024-02-16T09:55:39;151266.28;;;14.06;62.30
40920;BME280;26652;50.280;19.026;2024-02-16T09:57:39;151321.91;;;14.29;62.44
40920;BME280;26652;50.280;19.026;2024-02-16T09:59:40;151370.16;;;14.49;61.03
40920;BME280;26652;50.280;19.026;2024-02-16T10:01:41;151401.03;;;14.62;61.12
40920;BME280;26652;50.280;19.026;2024-02-16T10:03:43;151467.78;;;14.89;60.93
40920;BME280;26652;50.280;19.026;2024-02-16T10:05:44;151549.41;;;15.23;59.60
40920;BME280;26652;50.280;19.026;2024-02-16T10:07:44;151629.81;;;15.56;58.87
40920;BME280;26652;50.280;19.026;2024-02-16T10:09:45;151605.06;;;15.46;58.51
40920;BME280;26652;50.280;19.026;2024-02-16T10:11:46;151556.81;;;15.26;58.58
40920;BME280;26652;50.280;19.026;2024-02-16T10:14:03;151567.97;;;15.30;58.69
40920;BME280;26652;50.280;19.026;2024-02-16T10:16:05;151511.06;;;15.07;58.81
40920;BME280;26652;50.280;19.026;2024-02-16T10:18:09;151488.81;;;14.98;60.19
40920;BME280;26652;50.280;19.026;2024-02-16T10:20:09;151461.59;;;14.87;59.91
40920;BME280;26652;50.280;19.026;2024-02-16T10:22:12;151481.38;;;14.95;59.13
40920;BME280;26652;50.280;19.026;2024-02-16T10:24:12;151450.47;;;14.82;59.66
40920;BME280;26652;50.280;19.026;2024-02-16T10:26:15;151446.78;;;14.81;59.89
40920;BME280;26652;50.280;19.026;2024-02-16T10:28:15;151566.72;;;15.30;59.46
40920;BME280;26652;50.280;19.026;2024-02-16T10:30:17;151591.47;;;15.40;58.37